sensor_id;sensor_type;location;lat;lon;timestamp;pressure;altitude;pressure_sealevel;temperature;humidity
5905;BME280;2978;42.012;24.880;2023-02-23T00:01:18;98689.66;;;9.00;80.66
5905;BME280;2978;42.012;24.880;2023-02-23T00:03:45;98693.28;;;9.10;79.93
5905;BME280;2978;42.012;24.880;2023-02-23T00:06:11;98687.84;;;9.21;80.18
5905;BME280;2978;42.012;24.880;2023-02-23T00:08:38;98688.38;;;9.18;80.27
5905;BME280;2978;42.012;24.880;2023-02-23T00:11:06;98691.09;;;9.13;80.70
5905;BME280;2978;42.012;24.880;2023-02-23T00:13:33;98689.50;;;9.17;80.89
5905;BME280;2978;42.012;24.880;2023-02-23T00:16:10;98683.69;;;9.03;81.29
5905;BME280;2978;42.012;24.880;2023-02-23T00:18:50;98691.63;;;8.99;81.30
5905;BME280;2978;42.012;24.880;2023-02-23T00:21:23;98697.13;;;9.04;81.44
5905;BME280;2978;42.012;24.880;2023-02-23T00:23:51;98694.69;;;9.13;81.02
5905;BME280;2978;42.012;24.880;2023-02-23T00:26:18;98699.16;;;9.29;80.53
5905;BME280;2978;42.012;24.880;2023-02-23T00:28:46;98689.56;;;9.37;79.72
5905;BME280;2978;42.012;24.880;2023-02-23T00:31:13;98689.81;;;9.30;79.69
5905;BME280;2978;42.012;24.880;2023-02-23T00:33:40;98697.72;;;9.17;79.93
5905;BME280;2978;42.012;24.880;2023-02-23T00:36:09;98699.28;;;9.02;80.52
5905;BME280;2978;42.012;24.880;2023-02-23T00:38:36;98700.34;;;8.96;81.34
5905;BME280;2978;42.012;24.880;2023-02-23T00:41:09;98700.91;;;8.98;81.66
5905;BME280;2978;42.012;24.880;2023-02-23T00:43:37;98691.34;;;9.01;81.58
5905;BME280;2978;42.012;24.880;2023-02-23T00:46:03;98703.97;;;9.07;81.03
5905;BME280;2978;42.012;24.880;2023-02-23T00:48:31;98693.84;;;9.13;80.59
5905;BME280;2978;42.012;24.880;2023-02-23T00:51:05;98703.78;;;9.19;80.62
5905;BME280;2978;42.012;24.880;2023-02-23T00:53:31;98698.88;;;9.31;79.85
5905;BME280;2978;42.012;24.880;2023-02-23T00:55:56;98702.97;;;9.33;79.57
5905;BME280;2978;42.012;24.880;2023-02-23T00:58:23;98689.00;;;9.35;79.29
5905;BME280;2978;42.012;24.880;2023-02-23T01:00:49;98686.25;;;9.35;79.35
5905;BME280;2978;42.012;24.880;2023-02-23T01:03:15;98697.19;;;9.20;79.34
5905;BME280;2978;42.012;24.880;2023-02-23T01:05:41;98698.28;;;9.19;79.40
5905;BME280;2978;42.012;24.880;2023-02-23T01:08:09;98704.28;;;9.16;80.19
5905;BME280;2978;42.012;24.880;2023-02-23T01:10:39;98692.16;;;9.01;80.43
5905;BME280;2978;42.012;24.880;2023-02-23T01:13:25;98697.03;;;8.94;80.60
5905;BME280;2978;42.012;24.880;2023-02-23T01:15:52;98701.72;;;8.94;81.09
5905;BME280;2978;42.012;24.880;2023-02-23T01:18:19;98700.91;;;8.98;81.34
5905;BME280;2978;42.012;24.880;2023-02-23T01:20:45;98689.16;;;9.03;80.67
5905;BME280;2978;42.012;24.880;2023-02-23T01:23:12;98698.19;;;9.03;79.79
5905;BME280;2978;42.012;24.880;2023-02-23T01:25:40;98689.19;;;9.08;79.11
5905;BME280;2978;42.012;24.880;2023-02-23T01:28:07;98688.88;;;8.99;78.92
5905;BME280;2978;42.012;24.880;2023-02-23T01:30:33;98699.59;;;9.06;79.06
5905;BME280;2978;42.012;24.880;2023-02-23T01:32:59;98686.16;;;9.04;79.33
5905;BME280;2978;42.012;24.880;2023-02-23T01:35:27;98688.88;;;9.04;79.23
5905;BME280;2978;42.012;24.880;2023-02-23T01:37:52;98694.09;;;9.06;79.04
5905;BME280;2978;42.012;24.880;2023-02-23T01:40:20;98693.84;;;9.13;78.60
5905;BME280;2978;42.012;24.880;2023-02-23T01:43:19;98697.72;;;9.17;77.59
5905;BME280;2978;42.012;24.880;2023-02-23T01:45:52;98695.28;;;9.25;77.86
5905;BME280;2978;42.012;24.880;2023-02-23T01:48:26;98706.00;;;9.37;76.59
5905;BME280;2978;42.012;24.880;2023-02-23T01:51:07;98695.94;;;9.57;75.49
5905;BME280;2978;42.012;24.880;2023-02-23T01:53:39;98698.72;;;9.72;75.21
5905;BME280;2978;42.012;24.880;2023-02-23T01:56:19;98706.16;;;9.82;74.85
5905;BME280;2978;42.012;24.880;2023-02-23T01:58:46;98693.75;;;9.69;74.78
5905;BME280;2978;42.012;24.880;2023-02-23T02:01:16;98706.63;;;9.54;75.80
5905;BME280;2978;42.012;24.880;2023-02-23T02:03:48;98700.56;;;9.47;76.44
5905;BME280;2978;42.012;24.880;2023-02-23T02:06:17;98700.53;;;9.37;76.30
5905;BME280;2978;42.012;24.880;2023-02-23T02:08:47;98711.75;;;9.30;76.63
5905;BME280;2978;42.012;24.880;2023-02-23T02:11:18;98705.97;;;9.27;76.43
5905;BME280;2978;42.012;24.880;2023-02-23T02:14:06;98707.59;;;9.18;76.00
5905;BME280;2978;42.012;24.880;2023-02-23T02:39:52;98720.19;;;8.35;82.55
5905;BME280;2978;42.012;24.880;2023-02-23T02:42:49;98709.91;;;8.16;83.43
5905;BME280;2978;42.012;24.880;2023-02-23T02:48:21;98722.19;;;7.86;85.48
5905;BME280;2978;42.012;24.880;2023-02-23T02:50:54;98709.78;;;7.74;84.53
5905;BME280;2978;42.012;24.880;2023-02-23T02:53:29;98724.66;;;7.88;84.72
5905;BME280;2978;42.012;24.880;2023-02-23T02:56:00;98723.34;;;7.90;86.35
5905;BME280;2978;42.012;24.880;2023-02-23T02:58:30;98733.44;;;7.90;86.17
5905;BME280;2978;42.012;24.880;2023-02-23T03:00:56;98720.06;;;7.93;85.95
5905;BME280;2978;42.012;24.880;2023-02-23T03:03:47;98730.97;;;8.15;85.24
5905;BME280;2978;42.012;24.880;2023-02-23T03:06:43;98727.69;;;8.18;85.24
5905;BME280;2978;42.012;24.880;2023-02-23T03:13:00;98733.06;;;8.03;86.15
5905;BME280;2978;42.012;24.880;2023-02-23T03:21:30;98745.41;;;7.79;87.16
5905;BME280;2978;42.012;24.880;2023-02-23T03:27:53;98749.88;;;7.90;86.71
5905;BME280;2978;42.012;24.880;2023-02-23T03:52:15;98763.50;;;7.85;85.20
5905;BME280;2978;42.012;24.880;2023-02-23T03:55:10;98759.03;;;7.74;85.92
5905;BME280;2978;42.012;24.880;2023-02-23T03:57:58;98762.75;;;7.89;85.34
5905;BME280;2978;42.012;24.880;2023-02-23T04:00:45;98760.34;;;7.93;85.27
5905;BME280;2978;42.012;24.880;2023-02-23T04:03:32;98760.25;;;7.88;85.38
5905;BME280;2978;42.012;24.880;2023-02-23T04:06:18;98752.47;;;7.75;86.19
5905;BME280;2978;42.012;24.880;2023-02-23T04:09:06;98752.09;;;7.66;86.67
5905;BME280;2978;42.012;24.880;2023-02-23T04:12:01;98755.66;;;7.67;86.76
5905;BME280;2978;42.012;24.880;2023-02-23T04:15:00;98747.78;;;7.49;86.62
5905;BME280;2978;42.012;24.880;2023-02-23T04:17:29;98749.00;;;7.36;87.73
5905;BME280;2978;42.012;24.880;2023-02-23T04:19:55;98752.50;;;7.32;87.98
5905;BME280;2978;42.012;24.880;2023-02-23T04:22:21;98748.03;;;7.26;89.12
5905;BME280;2978;42.012;24.880;2023-02-23T04:24:47;98745.88;;;7.28;88.98
5905;BME280;2978;42.012;24.880;2023-02-23T04:27:13;98747.22;;;7.25;88.53
5905;BME280;2978;42.012;24.880;2023-02-23T04:29:38;98748.22;;;7.19;89.04
5905;BME280;2978;42.012;24.880;2023-02-23T04:32:06;98728.53;;;7.17;89.11
5905;BME280;2978;42.012;24.880;2023-02-23T04:34:32;98749.50;;;7.33;88.81
5905;BME280;2978;42.012;24.880;2023-02-23T04:36:57;98749.38;;;7.45;88.57
5905;BME280;2978;42.012;24.880;2023-02-23T04:39:23;98756.03;;;7.54;87.69
5905;BME280;2978;42.012;24.880;2023-02-23T04:41:49;98753.69;;;7.62;87.92
5905;BME280;2978;42.012;24.880;2023-02-23T04:44:15;98748.53;;;7.66;86.90
5905;BME280;2978;42.012;24.880;2023-02-23T04:46:41;98757.94;;;7.75;87.21
5905;BME280;2978;42.012;24.880;2023-02-23T04:49:06;98758.00;;;8.07;85.77
5905;BME280;2978;42.012;24.880;2023-02-23T04:51:32;98758.25;;;8.05;84.67
5905;BME280;2978;42.012;24.880;2023-02-23T04:53:58;98763.44;;;8.02;84.30
5905;BME280;2978;42.012;24.880;2023-02-23T04:56:24;98755.25;;;7.80;84.59
5905;BME280;2978;42.012;24.880;2023-02-23T04:58:50;98766.13;;;7.75;86.69
5905;BME280;2978;42.012;24.880;2023-02-23T05:01:15;98763.09;;;7.50;87.44
5905;BME280;2978;42.012;24.880;2023-02-23T05:03:41;98771.69;;;7.37;87.64
5905;BME280;2978;42.012;24.880;2023-02-23T05:06:06;98770.28;;;7.34;88.54
5905;BME280;2978;42.012;24.880;2023-02-23T05:08:32;98773.28;;;7.33;89.14
5905;BME280;2978;42.012;24.880;2023-02-23T05:10:57;98774.63;;;7.52;88.08
5905;BME280;2978;42.012;24.880;2023-02-23T05:13:23;98779.59;;;7.55;88.12
5905;BME280;2978;42.012;24.880;2023-02-23T05:15:48;98769.56;;;7.65;87.93
5905;BME280;2978;42.012;24.880;2023-02-23T05:18:14;98771.44;;;7.60;87.07
5905;BME280;2978;42.012;24.880;2023-02-23T05:20:41;98788.56;;;7.50;86.59
5905;BME280;2978;42.012;24.880;2023-02-23T05:23:09;98785.28;;;7.53;86.80
5905;BME280;2978;42.012;24.880;2023-02-23T05:25:37;98797.78;;;7.66;86.80
5905;BME280;2978;42.012;24.880;2023-02-23T05:30:24;98798.91;;;7.70;87.26
5905;BME280;2978;42.012;24.880;2023-02-23T05:32:49;98791.97;;;7.62;86.67
5905;BME280;2978;42.012;24.880;2023-02-23T05:35:15;98808.81;;;7.76;86.80
5905;BME280;2978;42.012;24.880;2023-02-23T05:37:41;98808.72;;;7.87;86.56
5905;BME280;2978;42.012;24.880;2023-02-23T05:40:07;98814.56;;;7.74;86.25
5905;BME280;2978;42.012;24.880;2023-02-23T05:42:32;98812.59;;;7.70;86.33
5905;BME280;2978;42.012;24.880;2023-02-23T05:44:58;98819.72;;;7.71;86.25
5905;BME280;2978;42.012;24.880;2023-02-23T05:47:24;98822.13;;;7.67;86.34
5905;BME280;2978;42.012;24.880;2023-02-23T05:49:49;98821.81;;;7.64;86.82
5905;BME280;2978;42.012;24.880;2023-02-23T05:52:14;98835.06;;;7.72;86.90
5905;BME280;2978;42.012;24.880;2023-02-23T05:54:40;98822.81;;;7.79;86.77
5905;BME280;2978;42.012;24.880;2023-02-23T05:57:05;98835.13;;;7.77;86.29
5905;BME280;2978;42.012;24.880;2023-02-23T05:59:32;98848.81;;;7.77;86.29
5905;BME280;2978;42.012;24.880;2023-02-23T06:01:57;98849.34;;;8.00;86.02
5905;BME280;2978;42.012;24.880;2023-02-23T06:04:23;98849.84;;;8.19;83.91
5905;BME280;2978;42.012;24.880;2023-02-23T06:06:48;98852.28;;;8.16;84.14
5905;BME280;2978;42.012;24.880;2023-02-23T06:09:14;98858.50;;;8.33;83.49
5905;BME280;2978;42.012;24.880;2023-02-23T06:11:39;98861.66;;;8.46;82.76
5905;BME280;2978;42.012;24.880;2023-02-23T06:14:06;98861.75;;;8.56;82.14
5905;BME280;2978;42.012;24.880;2023-02-23T06:16:31;98862.09;;;8.65;81.80
5905;BME280;2978;42.012;24.880;2023-02-23T06:18:57;98863.03;;;8.75;81.34
5905;BME280;2978;42.012;24.880;2023-02-23T06:21:22;98870.22;;;8.81;81.38
5905;BME280;2978;42.012;24.880;2023-02-23T06:23:49;98870.63;;;9.00;80.58
5905;BME280;2978;42.012;24.880;2023-02-23T06:26:15;98865.50;;;9.08;80.11
5905;BME280;2978;42.012;24.880;2023-02-23T06:28:40;98857.78;;;9.05;80.10
5905;BME280;2978;42.012;24.880;2023-02-23T06:31:06;98867.59;;;9.33;79.19
5905;BME280;2978;42.012;24.880;2023-02-23T06:33:32;98869.53;;;9.33;79.12
5905;BME280;2978;42.012;24.880;2023-02-23T06:35:57;98862.66;;;9.35;79.33
5905;BME280;2978;42.012;24.880;2023-02-23T06:38:23;98862.16;;;9.43;79.11
5905;BME280;2978;42.012;24.880;2023-02-23T06:40:48;98869.09;;;9.56;79.19
5905;BME280;2978;42.012;24.880;2023-02-23T06:43:14;98862.25;;;9.58;79.07
5905;BME280;2978;42.012;24.880;2023-02-23T06:45:39;98862.84;;;9.65;79.02
5905;BME280;2978;42.012;24.880;2023-02-23T06:48:05;98856.88;;;9.78;78.38
5905;BME280;2978;42.012;24.880;2023-02-23T06:50:31;98854.44;;;9.87;78.25
5905;BME280;2978;42.012;24.880;2023-02-23T06:52:56;98858.84;;;9.88;78.25
5905;BME280;2978;42.012;24.880;2023-02-23T07:09:43;98875.38;;;10.08;78.79
5905;BME280;2978;42.012;24.880;2023-02-23T07:12:09;98878.22;;;10.18;78.73
5905;BME280;2978;42.012;24.880;2023-02-23T07:14:35;98879.31;;;10.22;78.66
5905;BME280;2978;42.012;24.880;2023-02-23T07:23:45;98885.16;;;10.41;77.72
5905;BME280;2978;42.012;24.880;2023-02-23T07:26:12;98878.84;;;10.50;77.66
5905;BME280;2978;42.012;24.880;2023-02-23T07:28:40;98883.28;;;10.56;77.32
5905;BME280;2978;42.012;24.880;2023-02-23T07:31:05;98879.41;;;10.62;77.57
5905;BME280;2978;42.012;24.880;2023-02-23T07:33:31;98876.16;;;10.70;77.29
5905;BME280;2978;42.012;24.880;2023-02-23T07:35:56;98882.22;;;10.82;76.48
5905;BME280;2978;42.012;24.880;2023-02-23T07:38:22;98887.16;;;11.00;76.18
5905;BME280;2978;42.012;24.880;2023-02-23T07:40:50;98878.09;;;11.10;75.30
5905;BME280;2978;42.012;24.880;2023-02-23T07:43:16;98888.81;;;11.16;75.30
5905;BME280;2978;42.012;24.880;2023-02-23T07:45:42;98888.81;;;11.16;75.50
5905;BME280;2978;42.012;24.880;2023-02-23T07:48:08;98887.72;;;11.22;75.23
5905;BME280;2978;42.012;24.880;2023-02-23T07:50:33;98874.25;;;11.26;74.98
5905;BME280;2978;42.012;24.880;2023-02-23T07:53:00;98877.78;;;11.31;75.31
5905;BME280;2978;42.012;24.880;2023-02-23T07:55:25;98880.81;;;11.30;75.09
5905;BME280;2978;42.012;24.880;2023-02-23T07:58:09;98879.72;;;11.31;75.17
5905;BME280;2978;42.012;24.880;2023-02-23T08:00:37;98877.78;;;11.42;75.37
5905;BME280;2978;42.012;24.880;2023-02-23T08:03:07;98863.47;;;11.24;75.78
5905;BME280;2978;42.012;24.880;2023-02-23T08:06:04;98874.47;;;11.50;75.36
5905;BME280;2978;42.012;24.880;2023-02-23T08:08:30;98878.88;;;11.66;75.02
5905;BME280;2978;42.012;24.880;2023-02-23T08:11:03;98878.03;;;11.70;74.60
5905;BME280;2978;42.012;24.880;2023-02-23T08:13:29;98876.69;;;11.68;75.24
5905;BME280;2978;42.012;24.880;2023-02-23T08:15:56;98875.81;;;11.77;74.64
5905;BME280;2978;42.012;24.880;2023-02-23T08:18:22;98866.16;;;11.85;74.85
5905;BME280;2978;42.012;24.880;2023-02-23T08:20:47;98868.88;;;11.90;73.86
5905;BME280;2978;42.012;24.880;2023-02-23T08:23:12;98871.66;;;11.85;74.13
5905;BME280;2978;42.012;24.880;2023-02-23T08:25:38;98875.50;;;11.89;73.74
5905;BME280;2978;42.012;24.880;2023-02-23T08:28:04;98869.94;;;12.04;73.37
5905;BME280;2978;42.012;24.880;2023-02-23T08:30:31;98871.84;;;12.03;73.60
5905;BME280;2978;42.012;24.880;2023-02-23T08:32:57;98874.88;;;12.07;73.71
5905;BME280;2978;42.012;24.880;2023-02-23T08:35:24;98874.88;;;12.07;73.61
5905;BME280;2978;42.012;24.880;2023-02-23T08:37:49;98879.00;;;12.09;73.37
5905;BME280;2978;42.012;24.880;2023-02-23T08:40:15;98874.56;;;12.13;73.09
5905;BME280;2978;42.012;24.880;2023-02-23T08:42:42;98864.28;;;12.34;72.54
5905;BME280;2978;42.012;24.880;2023-02-23T08:45:09;98880.56;;;12.30;72.42
5905;BME280;2978;42.012;24.880;2023-02-23T08:47:35;98873.09;;;12.36;72.21
5905;BME280;2978;42.012;24.880;2023-02-23T08:50:01;98878.00;;;12.44;72.44
5905;BME280;2978;42.012;24.880;2023-02-23T08:52:26;98870.75;;;12.58;71.88
5905;BME280;2978;42.012;24.880;2023-02-23T08:54:53;98873.81;;;12.57;71.31
5905;BME280;2978;42.012;24.880;2023-02-23T08:57:19;98872.94;;;12.61;71.16
5905;BME280;2978;42.012;24.880;2023-02-23T08:59:45;98871.84;;;12.62;71.37
5905;BME280;2978;42.012;24.880;2023-02-23T09:02:11;98888.00;;;12.79;70.59
5905;BME280;2978;42.012;24.880;2023-02-23T09:04:37;98891.56;;;12.84;69.82
5905;BME280;2978;42.012;24.880;2023-02-23T09:07:06;98878.31;;;12.86;69.77
5905;BME280;2978;42.012;24.880;2023-02-23T09:09:32;98872.50;;;12.88;69.68
5905;BME280;2978;42.012;24.880;2023-02-23T09:11:58;98868.66;;;12.84;70.10
5905;BME280;2978;42.012;24.880;2023-02-23T09:14:24;98874.91;;;12.94;69.69
5905;BME280;2978;42.012;24.880;2023-02-23T09:16:49;98869.91;;;13.01;68.57
5905;BME280;2978;42.012;24.880;2023-02-23T09:19:15;98874.81;;;13.09;67.97
5905;BME280;2978;42.012;24.880;2023-02-23T09:21:42;98880.34;;;13.09;67.94
5905;BME280;2978;42.012;24.880;2023-02-23T09:24:08;98874.31;;;13.02;67.84
5905;BME280;2978;42.012;24.880;2023-02-23T09:26:33;98878.75;;;13.03;68.15
5905;BME280;2978;42.012;24.880;2023-02-23T09:29:05;98881.81;;;13.02;67.78
5905;BME280;2978;42.012;24.880;2023-02-23T09:31:32;98878.06;;;13.16;67.52
5905;BME280;2978;42.012;24.880;2023-02-23T09:33:57;98873.38;;;13.17;66.00
5905;BME280;2978;42.012;24.880;2023-02-23T09:36:25;98868.34;;;13.24;65.99
5905;BME280;2978;42.012;24.880;2023-02-23T09:38:53;98872.25;;;13.23;66.34
5905;BME280;2978;42.012;24.880;2023-02-23T09:41:48;98868.59;;;13.27;65.61
5905;BME280;2978;42.012;24.880;2023-02-23T09:49:44;98869.75;;;13.79;64.58
5905;BME280;2978;42.012;24.880;2023-02-23T09:52:18;98855.53;;;13.62;64.06
5905;BME280;2978;42.012;24.880;2023-02-23T09:54:45;98872.19;;;13.56;64.20
5905;BME280;2978;42.012;24.880;2023-02-23T09:57:14;98861.31;;;13.65;64.02
5905;BME280;2978;42.012;24.880;2023-02-23T09:59:41;98869.72;;;13.55;64.22
5905;BME280;2978;42.012;24.880;2023-02-23T10:02:27;98871.56;;;13.65;64.00
5905;BME280;2978;42.012;24.880;2023-02-23T10:05:01;98855.47;;;13.72;63.48
5905;BME280;2978;42.012;24.880;2023-02-23T10:07:45;98852.69;;;13.72;63.19
5905;BME280;2978;42.012;24.880;2023-02-23T10:21:16;98843.63;;;13.90;61.32
5905;BME280;2978;42.012;24.880;2023-02-23T10:23:56;98846.56;;;13.98;61.59
5905;BME280;2978;42.012;24.880;2023-02-23T10:26:25;98831.63;;;13.99;61.42
5905;BME280;2978;42.012;24.880;2023-02-23T10:28:53;98835.09;;;14.10;60.78
5905;BME280;2978;42.012;24.880;2023-02-23T10:31:33;98827.63;;;14.10;61.16
5905;BME280;2978;42.012;24.880;2023-02-23T10:34:05;98842.16;;;14.21;61.01
5905;BME280;2978;42.012;24.880;2023-02-23T10:36:38;98835.44;;;14.27;60.89
5905;BME280;2978;42.012;24.880;2023-02-23T10:39:07;98829.25;;;14.35;60.71
5905;BME280;2978;42.012;24.880;2023-02-23T10:41:34;98828.44;;;14.34;59.75
5905;BME280;2978;42.012;24.880;2023-02-23T10:44:01;98829.69;;;14.42;59.77
5905;BME280;2978;42.012;24.880;2023-02-23T10:46:35;98822.00;;;14.39;59.46
5905;BME280;2978;42.012;24.880;2023-02-23T10:49:02;98824.78;;;14.39;59.75
5905;BME280;2978;42.012;24.880;2023-02-23T10:51:31;98815.22;;;14.50;59.88
5905;BME280;2978;42.012;24.880;2023-02-23T10:53:58;98812.16;;;14.51;59.37
5905;BME280;2978;42.012;24.880;2023-02-23T10:56:24;98811.31;;;14.51;59.29
5905;BME280;2978;42.012;24.880;2023-02-23T10:58:54;98807.66;;;14.37;59.27
5905;BME280;2978;42.012;24.880;2023-02-23T11:04:15;98813.94;;;14.42;58.46
5905;BME280;2978;42.012;24.880;2023-02-23T11:06:42;98812.53;;;14.45;58.49
5905;BME280;2978;42.012;24.880;2023-02-23T11:09:29;98800.16;;;14.56;58.79
5905;BME280;2978;42.012;24.880;2023-02-23T11:12:03;98798.91;;;14.67;58.19
5905;BME280;2978;42.012;24.880;2023-02-23T11:14:41;98798.28;;;14.70;57.96
5905;BME280;2978;42.012;24.880;2023-02-23T11:17:25;98808.16;;;14.76;58.14
5905;BME280;2978;42.012;24.880;2023-02-23T11:19:57;98793.59;;;14.71;58.37
5905;BME280;2978;42.012;24.880;2023-02-23T11:22:23;98787.84;;;14.67;58.25
5905;BME280;2978;42.012;24.880;2023-02-23T11:24:51;98789.69;;;14.72;58.15
5905;BME280;2978;42.012;24.880;2023-02-23T11:27:23;98790.81;;;14.71;58.28
5905;BME280;2978;42.012;24.880;2023-02-23T11:29:51;98795.44;;;14.75;58.33
5905;BME280;2978;42.012;24.880;2023-02-23T11:32:21;98794.41;;;14.71;59.89
5905;BME280;2978;42.012;24.880;2023-02-23T11:37:35;98789.25;;;14.64;60.21
5905;BME280;2978;42.012;24.880;2023-02-23T11:40:18;98799.63;;;14.54;62.09
5905;BME280;2978;42.012;24.880;2023-02-23T11:43:07;98793.16;;;14.45;63.19
5905;BME280;2978;42.012;24.880;2023-02-23T11:45:44;98791.13;;;14.32;63.76
5905;BME280;2978;42.012;24.880;2023-02-23T11:50:52;98779.66;;;14.20;64.81
5905;BME280;2978;42.012;24.880;2023-02-23T11:53:25;98789.97;;;14.14;65.11
5905;BME280;2978;42.012;24.880;2023-02-23T11:55:54;98775.25;;;14.19;65.10
5905;BME280;2978;42.012;24.880;2023-02-23T11:58:37;98777.22;;;14.37;64.22
5905;BME280;2978;42.012;24.880;2023-02-23T12:01:08;98774.47;;;14.37;64.37
5905;BME280;2978;42.012;24.880;2023-02-23T12:03:44;98785.44;;;14.42;64.52
5905;BME280;2978;42.012;24.880;2023-02-23T12:06:28;98787.72;;;14.40;64.46
5905;BME280;2978;42.012;24.880;2023-02-23T12:09:19;98791.94;;;14.51;64.07
5905;BME280;2978;42.012;24.880;2023-02-23T12:11:46;98785.31;;;14.52;64.02
5905;BME280;2978;42.012;24.880;2023-02-23T12:17:01;98800.34;;;14.27;64.51
5905;BME280;2978;42.012;24.880;2023-02-23T12:19:48;98802.69;;;14.15;65.56
5905;BME280;2978;42.012;24.880;2023-02-23T12:22:23;98789.16;;;14.14;65.08
5905;BME280;2978;42.012;24.880;2023-02-23T12:27:46;98795.03;;;14.31;65.26
5905;BME280;2978;42.012;24.880;2023-02-23T12:30:25;98798.78;;;14.16;65.60
5905;BME280;2978;42.012;24.880;2023-02-23T12:33:07;98802.78;;;14.05;66.59
5905;BME280;2978;42.012;24.880;2023-02-23T12:35:58;98807.69;;;13.90;66.49
5905;BME280;2978;42.012;24.880;2023-02-23T12:41:47;98815.28;;;13.79;68.22
5905;BME280;2978;42.012;24.880;2023-02-23T12:47:01;98821.66;;;13.80;69.16
5905;BME280;2978;42.012;24.880;2023-02-23T12:49:35;98812.13;;;13.91;69.02
5905;BME280;2978;42.012;24.880;2023-02-23T12:52:08;98821.66;;;13.80;69.50
5905;BME280;2978;42.012;24.880;2023-02-23T12:54:39;98815.28;;;13.79;70.02
5905;BME280;2978;42.012;24.880;2023-02-23T12:57:31;98818.28;;;13.83;69.68
5905;BME280;2978;42.012;24.880;2023-02-23T13:20:05;98818.56;;;13.34;72.72
5905;BME280;2978;42.012;24.880;2023-02-23T13:25:20;98826.59;;;13.30;72.88
5905;BME280;2978;42.012;24.880;2023-02-23T13:27:51;98830.44;;;13.34;73.05
5905;BME280;2978;42.012;24.880;2023-02-23T13:30:19;98825.44;;;13.36;72.41
5905;BME280;2978;42.012;24.880;2023-02-23T13:32:47;98811.69;;;13.31;72.74
5905;BME280;2978;42.012;24.880;2023-02-23T13:35:15;98828.06;;;13.23;73.68
5905;BME280;2978;42.012;24.880;2023-02-23T13:42:45;98835.03;;;13.15;74.14
5905;BME280;2978;42.012;24.880;2023-02-23T13:48:02;98830.88;;;13.18;74.64
5905;BME280;2978;42.012;24.880;2023-02-23T13:50:41;98835.41;;;13.04;75.38
5905;BME280;2978;42.012;24.880;2023-02-23T13:53:31;98837.06;;;13.05;75.86
5905;BME280;2978;42.012;24.880;2023-02-23T13:56:03;98836.22;;;13.04;75.71
5905;BME280;2978;42.012;24.880;2023-02-23T13:58:31;98835.66;;;13.07;75.56
5905;BME280;2978;42.012;24.880;2023-02-23T14:03:38;98832.13;;;13.02;76.25
5905;BME280;2978;42.012;24.880;2023-02-23T14:06:05;98850.13;;;12.89;76.79
5905;BME280;2978;42.012;24.880;2023-02-23T14:08:51;98845.09;;;12.96;76.77
5905;BME280;2978;42.012;24.880;2023-02-23T14:11:27;98849.50;;;12.97;76.33
5905;BME280;2978;42.012;24.880;2023-02-23T14:14:00;98846.81;;;12.87;77.02
5905;BME280;2978;42.012;24.880;2023-02-23T14:16:26;98853.47;;;12.86;77.49
5905;BME280;2978;42.012;24.880;2023-02-23T14:19:12;98851.63;;;12.72;78.43
5905;BME280;2978;42.012;24.880;2023-02-23T14:21:50;98858.53;;;12.74;78.06
5905;BME280;2978;42.012;24.880;2023-02-23T14:24:22;98851.72;;;12.62;78.83
5905;BME280;2978;42.012;24.880;2023-02-23T14:29:42;98847.34;;;12.51;79.82
5905;BME280;2978;42.012;24.880;2023-02-23T14:37:39;98852.16;;;12.30;80.55
5905;BME280;2978;42.012;24.880;2023-02-23T14:40:17;98853.78;;;12.41;80.81
5905;BME280;2978;42.012;24.880;2023-02-23T14:42:49;98866.44;;;12.42;80.79
5905;BME280;2978;42.012;24.880;2023-02-23T14:45:23;98857.03;;;12.48;79.79
5905;BME280;2978;42.012;24.880;2023-02-23T14:47:53;98864.16;;;12.54;80.15
5905;BME280;2978;42.012;24.880;2023-02-23T14:50:38;98863.38;;;12.43;80.57
5905;BME280;2978;42.012;24.880;2023-02-23T14:53:09;98859.78;;;12.48;80.22
5905;BME280;2978;42.012;24.880;2023-02-23T14:55:40;98865.81;;;12.55;80.14
5905;BME280;2978;42.012;24.880;2023-02-23T14:58:27;98854.56;;;12.41;80.66
5905;BME280;2978;42.012;24.880;2023-02-23T15:00:54;98858.47;;;12.40;80.56
5905;BME280;2978;42.012;24.880;2023-02-23T15:03:20;98863.00;;;12.16;81.87
5905;BME280;2978;42.012;24.880;2023-02-23T15:05:52;98869.81;;;12.34;81.62
5905;BME280;2978;42.012;24.880;2023-02-23T15:08:24;98859.38;;;12.21;81.89
5905;BME280;2978;42.012;24.880;2023-02-23T15:10:57;98853.06;;;12.15;82.35
5905;BME280;2978;42.012;24.880;2023-02-23T15:13:27;98873.72;;;12.18;82.61
5905;BME280;2978;42.012;24.880;2023-02-23T15:15:55;98858.03;;;12.13;82.98
5905;BME280;2978;42.012;24.880;2023-02-23T15:18:31;98860.00;;;12.08;83.02
5905;BME280;2978;42.012;24.880;2023-02-23T15:20:59;98877.31;;;12.13;83.31
5905;BME280;2978;42.012;24.880;2023-02-23T15:23:25;98877.59;;;12.12;83.13
5905;BME280;2978;42.012;24.880;2023-02-23T15:25:50;98871.00;;;12.13;82.23
5905;BME280;2978;42.012;24.880;2023-02-23T15:28:26;98878.72;;;12.11;82.26
5905;BME280;2978;42.012;24.880;2023-02-23T15:30:55;98874.81;;;12.17;82.53
5905;BME280;2978;42.012;24.880;2023-02-23T15:33:23;98883.63;;;12.19;81.82
5905;BME280;2978;42.012;24.880;2023-02-23T15:38:46;98878.53;;;11.92;82.75
5905;BME280;2978;42.012;24.880;2023-02-23T15:43:43;98887.09;;;11.81;83.64
5905;BME280;2978;42.012;24.880;2023-02-23T15:46:20;98886.50;;;11.94;83.30
5905;BME280;2978;42.012;24.880;2023-02-23T15:48:49;98892.03;;;11.79;83.98
5905;BME280;2978;42.012;24.880;2023-02-23T15:51:36;98915.19;;;11.78;83.97
5905;BME280;2978;42.012;24.880;2023-02-23T15:54:13;98897.88;;;11.67;84.44
5905;BME280;2978;42.012;24.880;2023-02-23T15:56:40;98912.16;;;11.79;84.58
5905;BME280;2978;42.012;24.880;2023-02-23T15:59:11;98916.56;;;11.85;83.94
5905;BME280;2978;42.012;24.880;2023-02-23T16:01:42;98916.84;;;11.79;84.56
5905;BME280;2978;42.012;24.880;2023-02-23T16:07:06;98916.84;;;11.79;84.30
5905;BME280;2978;42.012;24.880;2023-02-23T16:09:45;98927.84;;;11.84;84.32
5905;BME280;2978;42.012;24.880;2023-02-23T16:12:33;98921.78;;;11.87;84.25
5905;BME280;2978;42.012;24.880;2023-02-23T16:15:03;98914.38;;;11.77;84.49
5905;BME280;2978;42.012;24.880;2023-02-23T16:17:40;98922.88;;;11.86;84.12
5905;BME280;2978;42.012;24.880;2023-02-23T16:22:51;98923.47;;;11.78;84.17
5905;BME280;2978;42.012;24.880;2023-02-23T16:25:20;98935.59;;;11.77;84.10
5905;BME280;2978;42.012;24.880;2023-02-23T16:27:52;98930.91;;;11.72;84.56